x

Central Caribbean - 210 Nm Sse Of Kingston, Jamaica (42058) Wave Buoy

6:50 - Mon 22nd Dec 2014 All times are EST. -5 hours from GMT.

  • Sig Wave height 6.2ft
  • Swell Direction
  • Peak Period 8s
  • Average Period 5s
  • Wind
    22mph, 27mph gusts
  • Sea Temp 82°f
  • Air Temp 81°f
  • Sea Pressure 1011.1mb
  • Central Caribbean - 210 Nm Sse Of Kingston, Jamaica
  • Central Caribbean - 210 Nm Sse Of Kingston, Jamaica

More Historic Weather Station data

Upgrade to MSW Pro to gain access to the past 30 days of data for over 8000 Wavebouys and Weather Stations around the globe.

Join Pro

Comparision Forecast

View Surf forecast
   
lun. 12/22 6:50 6ft 8s 5s 22 27 mph 1011.1mb 82f 81f
5:50 7ft 8s 5s 25 29 mph 1010.3mb 82f 82f
4:50 7ft 7s 5s 22 29 mph 1009.9mb 82f 82f
3:50 7.5ft 7s 6s 25 29 mph 1009.9mb 82f 82f
2:50 6ft 7s 5s 22 27 mph 1010.2mb 82f 81f
1:50 7ft 8s 6s 22 27 mph 1010.7mb 82f 82f
12:50 7ft 8s 5s 20 22 mph 1011.9mb 82f 82f
11:50 7.5ft 6s 5s 22 27 mph 1012.9mb 82f 82f
10:50 7.5ft 8s 6s 22 29 mph 1013.5mb 82f 82f
9:50 8ft 8s 6s 25 27 mph 1013.8mb 82f 82f
8:50 8ft 8s 6s 27 31 mph 1013.7mb 82f 82f
7:50 7.5ft 7s 6s 25 31 mph 1013.2mb 82f 80f
6:50 7.5ft 7s 5s 27 31 mph 1012.3mb 82f 81f
5:50 7ft 8s 5s 25 31 mph 1011.9mb 82f 81f
4:50 7ft 6s 5s 27 31 mph 1011.3mb 82f 81f
3:50 7.5ft 7s 6s 25 29 mph 1011.1mb 82f 81f
2:50 6.5ft 8s 5s 25 31 mph 1011.1mb 82f 81f
1:50 7ft 7s 5s 22 29 mph 1011.8mb 82f 81f
12:50 7ft 8s 6s 25 29 mph 1012.4mb 82f 82f
dim. 12/21 11:50 7ft 7s 5s 25 29 mph 1013.2mb 82f 81f
10:50 6.5ft 8s 5s 22 27 mph 1013.7mb 82f 82f
9:50 6ft 8s 5s 22 27 mph 1013.9mb 82f 82f
8:50 6ft 7s 5s 22 27 mph 1013.7mb 82f 82f
7:50 5.5ft 8s 5s 18 22 mph 1013.5mb 82f 82f
6:50 6ft 8s 5s 20 22 mph 1012.9mb 82f 81f
5:50 6ft 8s 5s 22 25 mph 1012.4mb 82f 81f
4:50 6.5ft 8s 6s 22 29 mph 1012.1mb 82f 81f
3:50 6ft 8s 6s 18 20 mph 1012.1mb 82f 82f
2:50 6ft 8s 5s 13 18 mph 1012.5mb 82f 79f
1:50 6ft 8s 5s 20 22 mph 1012.6mb 82f 82f
12:50 6ft 6s 5s 20 25 mph 1013.2mb 82f 82f
11:50 6ft 7s 5s 22 27 mph 1014mb 82f 82f
10:50 6.5ft 8s 5s 20 25 mph 1014.7mb 82f 82f
9:50 6ft 8s 5s 20 25 mph 1015mb 82f 82f
8:50 6.5ft 8s 5s 22 27 mph 1014.7mb 82f 82f
7:50 6ft 7s 5s 20 27 mph 1014.2mb 82f 82f
6:50 7ft 7s 5s 22 27 mph 1013.5mb 82f 81f
5:50 6.5ft 7s 5s 22 25 mph 1012.6mb 82f 82f
4:50 6.5ft 7s 5s 20 22 mph 1012.3mb 82f 81f
3:50 6ft 8s 5s 25 29 mph 1011.8mb 82f 81f
2:50 6ft 7s 5s 22 29 mph 1011.8mb 82f 81f
1:50 5.5ft 7s 5s 22 25 mph 1012.3mb 82f 81f
12:50 5ft 8s 5s 22 25 mph 1013.2mb 82f 82f
sam. 12/20 11:50 5ft 8s 5s 22 25 mph 1013.7mb 82f 82f
10:50 5ft 8s 5s 22 25 mph 1013.8mb 83f 82f
9:50 5ft 8s 5s 20 25 mph 1013.8mb 83f 82f
8:50 5ft 7s 5s 20 22 mph 1013.7mb 83f 82f
7:50 5ft 7s 5s 20 22 mph 1013.2mb 83f 82f
6:50 4.5ft 7s 5s 20 25 mph 1012.7mb 83f 82f
5:50 5ft 7s 5s 18 22 mph 1012mb 83f 82f
4:50 4.5ft 6s 5s 20 22 mph 1011.6mb 83f 82f
3:50 5ft 7s 5s 20 27 mph 1011.4mb 83f 81f
2:50 5ft 7s 5s 16 18 mph 1011.5mb 83f 82f
1:50 5ft 7s 5s 18 20 mph 1011.7mb 83f 82f
12:50 5ft 7s 5s 18 22 mph 1012.4mb 83f 82f
11:50 5ft 8s 5s 20 22 mph 1013.4mb 83f 82f
10:50 5ft 7s 5s 20 25 mph 1014.1mb 83f 82f
9:50 5ft 7s 5s 18 22 mph 1014.3mb 83f 82f
8:50 5ft 6s 5s 20 22 mph 1014.1mb 83f 82f
7:50 5ft 7s 5s 16 20 mph 1013.7mb 83f 82f
6:50 5ft 7s 5s 18 22 mph 1012.7mb 83f 81f
5:50 5ft 8s 5s 16 20 mph 1011.9mb 83f 81f
4:50 5ft 8s 5s 18 22 mph 1011.3mb 83f 81f
3:50 5.5ft 8s 5s 18 20 mph 1011.2mb 83f 81f
2:50 5ft 7s 5s 20 25 mph 1011.3mb 83f 81f
1:50 6ft 8s 5s 18 22 mph 1011.9mb 83f 81f
12:50 6ft 7s 5s 20 25 mph 1012.2mb 83f 81f
ven. 12/19 11:50 5.5ft 7s 5s 20 22 mph 1012.7mb 83f 81f
10:50 5.5ft 7s 5s 20 25 mph 1013.2mb 83f 81f
9:50 5ft 7s 5s 20 22 mph 1013.6mb 83f 81f
8:50 5.5ft 8s 5s 20 22 mph 1013.3mb 83f 81f
7:50 5.5ft 8s 5s 20 22 mph 1012.5mb 83f 81f
6:50 6ft 7s 5s 20 25 mph 1012.1mb 83f 81f
5:50 6ft 7s 5s 22 25 mph 1011.6mb 83f 81f
4:50 5.5ft 8s 5s 18 22 mph 1011.6mb 83f 82f
3:50 5ft 8s 5s 18 22 mph 1011.1mb 83f 82f
2:50 5.5ft 7s 5s 20 22 mph 1011.2mb 83f 82f
1:50 5.5ft 8s 5s 18 22 mph 1011.9mb 83f 82f
12:50 5.5ft 8s 5s 18 20 mph 1012.8mb 83f 82f
11:50 5.5ft 8s 5s 20 22 mph 1013.4mb 83f 82f
10:50 6ft 8s 5s 18 22 mph 1014.3mb 82f 82f
9:50 5.5ft 8s 5s 18 20 mph 1014.9mb 82f 82f
8:50 6ft 8s 5s 18 22 mph 1014.3mb 82f 82f
7:50 6ft 8s 5s 18 22 mph 1013.7mb 83f 82f
6:50 7ft 8s 6s 18 22 mph 1012.8mb 83f 81f
5:50 6ft 8s 6s 18 22 mph 1012.1mb 83f 81f
4:50 7ft 8s 6s 18 22 mph 1011.7mb 83f 81f
3:50 7ft 8s 6s 20 22 mph 1011.6mb 83f 81f
2:50 7ft 8s 6s 20 25 mph 1011.6mb 83f 81f
1:50 8ft 8s 6s 20 22 mph 1012mb 83f 81f